createdAt,value
2019-05-13T00:01:20.730Z,17.07
2019-05-13T00:03:54.085Z,19.48
2019-05-13T00:06:24.345Z,19.55
2019-05-13T00:08:55.316Z,22.13
2019-05-13T00:11:26.288Z,24.07
2019-05-13T00:13:57.273Z,29.05
2019-05-13T00:16:28.272Z,21.12
2019-05-13T00:18:59.359Z,17.50
2019-05-13T00:21:33.696Z,25.25
2019-05-13T00:24:05.077Z,23.40
2019-05-13T00:26:36.019Z,19.52
2019-05-13T00:29:06.999Z,23.87
2019-05-13T00:31:39.085Z,21.95
2019-05-13T00:34:10.260Z,24.70
2019-05-13T00:36:41.262Z,17.65
2019-05-13T00:39:12.268Z,20.50
2019-05-13T00:41:44.292Z,21.00
2019-05-13T00:44:15.482Z,26.70
2019-05-13T00:46:46.491Z,21.15
2019-05-13T00:49:17.474Z,23.35
2019-05-13T00:51:48.448Z,19.25
2019-05-13T00:54:19.462Z,19.62
2019-05-13T00:56:50.578Z,29.95
2019-05-13T00:59:24.252Z,20.97
2019-05-13T01:01:55.706Z,22.37
2019-05-13T01:04:26.649Z,23.55
2019-05-13T01:06:57.630Z,25.35
2019-05-13T01:09:28.579Z,18.30
2019-05-13T01:12:00.788Z,31.20
2019-05-13T01:14:33.980Z,20.17
2019-05-13T01:17:04.548Z,25.08
2019-05-13T01:19:35.525Z,28.07
2019-05-13T01:22:06.507Z,22.82
2019-05-13T01:24:37.472Z,19.52
2019-05-13T01:27:08.561Z,19.82
2019-05-13T01:29:43.403Z,23.45
2019-05-13T01:32:14.534Z,23.73
2019-05-13T01:34:45.592Z,20.32
2019-05-13T01:37:16.577Z,18.98
2019-05-13T01:39:47.521Z,28.75
2019-05-13T01:42:18.554Z,21.27
2019-05-13T01:44:49.557Z,25.27
2019-05-13T01:47:20.534Z,21.23
2019-05-13T01:49:51.486Z,22.22
2019-05-13T01:52:23.785Z,22.55
2019-05-13T01:54:55.059Z,25.15
2019-05-13T01:57:26.039Z,28.32
2019-05-13T01:59:56.989Z,20.48
2019-05-13T02:02:29.221Z,21.07
2019-05-13T02:05:03.712Z,22.00
2019-05-13T02:07:33.999Z,21.62
2019-05-13T02:10:07.845Z,34.15
2019-05-13T02:12:38.822Z,29.82
2019-05-13T02:15:14.313Z,33.83
2019-05-13T02:17:45.022Z,31.93
2019-05-13T02:20:16.047Z,25.80
2019-05-13T02:22:47.018Z,31.27
2019-05-13T02:25:17.968Z,27.22
2019-05-13T02:27:48.945Z,25.62
2019-05-13T02:30:19.928Z,32.38
2019-05-13T02:32:53.143Z,24.63
2019-05-13T02:35:23.590Z,22.05
2019-05-13T02:38:12.396Z,34.88
2019-05-13T02:40:27.242Z,20.23
2019-05-13T02:42:58.221Z,27.45
2019-05-13T02:45:29.501Z,26.37
2019-05-13T02:48:03.349Z,26.25
2019-05-13T02:50:34.014Z,31.02
2019-05-13T02:53:05.067Z,35.23
2019-05-13T02:55:36.041Z,32.25
2019-05-13T02:58:06.991Z,37.63
2019-05-13T03:00:37.965Z,38.85
2019-05-13T03:03:12.605Z,32.05
2019-05-13T03:05:42.827Z,35.43
2019-05-13T03:08:33.603Z,23.62
2019-05-13T03:10:46.823Z,44.73
2019-05-13T03:13:17.793Z,29.52
2019-05-13T03:15:52.174Z,28.15
2019-05-13T03:18:23.039Z,35.70
2019-05-13T03:20:54.191Z,36.58
2019-05-13T03:23:25.136Z,33.92
2019-05-13T03:25:56.123Z,43.20
2019-05-13T03:28:27.067Z,62.10
2019-05-13T03:30:58.042Z,55.03
2019-05-13T03:33:29.061Z,85.25
2019-05-13T03:36:05.577Z,38.88
2019-05-13T03:38:53.798Z,46.95
2019-05-13T03:41:08.379Z,75.32
2019-05-13T03:43:42.975Z,32.20
2019-05-13T03:46:14.610Z,44.70
2019-05-13T03:48:47.081Z,53.98
2019-05-13T03:51:18.190Z,30.82
2019-05-13T03:53:53.255Z,31.75
2019-05-13T03:56:24.104Z,36.10
2019-05-13T03:58:55.701Z,30.85
2019-05-13T04:01:26.738Z,38.33
2019-05-13T04:03:57.736Z,30.77
2019-05-13T04:06:32.053Z,37.65
2019-05-13T04:09:21.008Z,27.50
2019-05-13T04:11:34.248Z,34.30
2019-05-13T04:14:05.284Z,42.45
2019-05-13T04:16:36.235Z,19.60
2019-05-13T04:19:07.216Z,26.85
2019-05-13T04:21:38.177Z,20.70
2019-05-13T04:24:12.232Z,24.37
2019-05-13T04:26:43.362Z,19.17
2019-05-13T04:29:15.560Z,57.73
2019-05-13T04:31:47.512Z,28.52
2019-05-13T04:34:22.893Z,26.95
2019-05-13T04:36:52.644Z,27.55
2019-05-13T04:39:40.498Z,27.05
2019-05-13T04:41:56.397Z,22.10
2019-05-13T04:44:27.709Z,27.02
2019-05-13T04:46:58.672Z,20.00
2019-05-13T04:49:32.565Z,32.60
2019-05-13T04:52:03.695Z,20.50
2019-05-13T04:54:34.978Z,27.25
2019-05-13T04:57:06.008Z,20.12
2019-05-13T04:59:40.297Z,25.65
2019-05-13T05:02:54.639Z,21.97
2019-05-13T05:05:29.047Z,24.10
2019-05-13T05:08:22.471Z,22.42
2019-05-13T05:11:13.041Z,29.18
2019-05-13T05:14:04.676Z,28.35
2019-05-13T05:17:05.672Z,39.18
2019-05-13T05:20:08.371Z,24.07
2019-05-13T05:23:03.684Z,19.10
2019-05-13T05:26:21.981Z,16.10
2019-05-13T05:29:16.492Z,29.18
2019-05-13T05:32:06.938Z,17.73
2019-05-13T05:35:06.702Z,21.00
2019-05-13T05:38:12.540Z,20.48
2019-05-13T05:40:45.279Z,16.85
2019-05-13T05:43:18.371Z,15.13
2019-05-13T05:45:51.279Z,15.65
2019-05-13T05:48:23.714Z,16.50
2019-05-13T05:50:57.056Z,28.42
2019-05-13T05:53:31.901Z,33.58
2019-05-13T05:56:05.406Z,22.20
2019-05-13T05:58:36.712Z,13.53
2019-05-13T06:01:11.738Z,11.10
2019-05-13T06:03:44.906Z,12.10
2019-05-13T06:06:16.471Z,17.35
2019-05-13T06:08:48.574Z,20.75
2019-05-13T06:11:22.296Z,13.32
2019-05-13T06:13:54.636Z,24.87
2019-05-13T06:16:25.898Z,10.60
2019-05-13T06:18:56.951Z,21.17
2019-05-13T06:21:28.318Z,11.90
2019-05-13T06:23:59.363Z,11.70
2019-05-13T06:26:31.390Z,14.85
2019-05-13T06:29:02.821Z,15.10
2019-05-13T06:31:34.158Z,11.20
2019-05-13T06:34:06.768Z,13.35
2019-05-13T06:36:37.924Z,23.10
2019-05-13T06:39:12.306Z,21.15
2019-05-13T06:41:43.491Z,21.80
2019-05-13T06:44:14.427Z,12.07
2019-05-13T06:46:45.408Z,12.65
2019-05-13T06:49:16.351Z,9.08
2019-05-13T06:51:47.321Z,10.58
2019-05-13T06:54:18.286Z,10.40
2019-05-13T06:56:51.743Z,15.20
2019-05-13T06:59:22.496Z,9.10
2019-05-13T07:01:54.569Z,30.27
2019-05-13T07:04:25.681Z,17.00
2019-05-13T07:07:09.976Z,16.15
2019-05-13T07:09:32.309Z,9.53
2019-05-13T07:12:03.605Z,12.40
2019-05-13T07:14:35.783Z,15.08
2019-05-13T07:17:06.750Z,9.78
2019-05-13T07:19:37.738Z,12.30
2019-05-13T07:22:08.702Z,7.75
2019-05-13T07:24:41.443Z,13.25
2019-05-13T07:27:12.472Z,10.85
2019-05-13T07:29:43.388Z,7.50
2019-05-13T07:32:14.470Z,11.83
2019-05-13T07:34:45.523Z,8.30
2019-05-13T07:37:16.551Z,10.40
2019-05-13T07:39:47.887Z,14.80
2019-05-13T07:42:18.857Z,12.28
2019-05-13T07:44:51.996Z,10.08
2019-05-13T07:47:22.536Z,7.28
2019-05-13T07:49:53.692Z,20.10
2019-05-13T07:52:25.716Z,7.60
2019-05-13T07:54:56.690Z,7.90
2019-05-13T07:57:27.629Z,8.05
2019-05-13T07:59:58.619Z,8.70
2019-05-13T08:02:31.881Z,10.65
2019-05-13T08:05:02.678Z,9.48
2019-05-13T08:07:33.733Z,11.68
2019-05-13T08:10:07.210Z,7.28
2019-05-13T08:12:38.181Z,11.60
2019-05-13T08:15:11.928Z,11.88
2019-05-13T08:17:47.342Z,12.47
2019-05-13T08:20:15.657Z,5.25
2019-05-13T08:22:46.596Z,9.63
2019-05-13T08:25:17.598Z,12.45
2019-05-13T08:27:48.636Z,7.37
2019-05-13T08:30:22.554Z,7.35
2019-05-13T08:32:52.646Z,8.45
2019-05-13T08:35:23.628Z,15.83
2019-05-13T08:37:54.574Z,7.83
2019-05-13T08:40:25.561Z,10.32
2019-05-13T08:42:56.504Z,10.98
2019-05-13T08:45:27.484Z,9.58
2019-05-13T08:47:58.423Z,4.75
2019-05-13T08:50:32.217Z,5.15
2019-05-13T08:53:02.103Z,8.40
2019-05-13T08:55:33.079Z,17.20
2019-05-13T08:58:04.020Z,7.87
2019-05-13T09:00:52.808Z,6.25
2019-05-13T09:03:25.438Z,7.33
2019-05-13T09:05:56.424Z,5.00
2019-05-13T09:08:28.015Z,16.25
2019-05-13T09:11:01.395Z,8.60
2019-05-13T09:13:33.006Z,27.20
2019-05-13T09:16:04.406Z,12.23
2019-05-13T09:18:35.443Z,9.45
2019-05-13T09:21:06.523Z,6.17
2019-05-13T09:23:37.465Z,7.10
2019-05-13T09:26:08.449Z,7.78
2019-05-13T09:28:41.712Z,8.40
2019-05-13T09:31:12.741Z,13.78
2019-05-13T09:33:43.951Z,6.70
2019-05-13T09:36:15.170Z,2.52
2019-05-13T09:38:46.145Z,4.03
2019-05-13T09:41:17.957Z,7.67
2019-05-13T09:43:51.216Z,4.28
2019-05-13T09:46:22.553Z,9.53
2019-05-13T09:48:53.733Z,12.13
2019-05-13T09:51:24.691Z,3.62
2019-05-13T09:53:55.683Z,18.50
2019-05-13T09:56:26.626Z,7.03
2019-05-13T09:58:57.600Z,6.75
2019-05-13T10:01:28.548Z,9.63
2019-05-13T10:04:02.576Z,5.90
2019-05-13T10:06:32.845Z,6.72
2019-05-13T10:09:05.063Z,11.63
2019-05-13T10:11:36.872Z,10.13
2019-05-13T10:14:07.936Z,6.10
2019-05-13T10:16:38.894Z,35.77
2019-05-13T10:19:12.682Z,16.40
2019-05-13T10:21:43.649Z,8.03
2019-05-13T10:24:15.016Z,5.08
2019-05-13T10:26:46.418Z,11.75
2019-05-13T10:29:17.396Z,11.57
2019-05-13T10:31:51.440Z,5.97
2019-05-13T10:34:22.535Z,17.12
2019-05-13T10:36:54.226Z,6.83
2019-05-13T10:39:25.220Z,6.87
2019-05-13T10:41:57.217Z,9.78
2019-05-13T10:44:28.190Z,6.35
2019-05-13T10:46:59.142Z,27.10
2019-05-13T10:49:32.739Z,4.17
2019-05-13T10:52:03.267Z,10.43
2019-05-13T10:54:34.526Z,12.55
2019-05-13T10:57:06.546Z,7.47
2019-05-13T10:59:37.590Z,5.65
2019-05-13T11:02:08.673Z,16.97
2019-05-13T11:04:41.278Z,10.18
2019-05-13T11:07:12.413Z,23.45
2019-05-13T11:09:44.930Z,27.93
2019-05-13T11:12:15.997Z,12.30
2019-05-13T11:14:51.509Z,7.45
2019-05-13T11:17:23.269Z,7.95
2019-05-13T11:19:52.388Z,16.12
2019-05-13T11:22:23.346Z,8.73
2019-05-13T11:24:54.326Z,12.23
2019-05-13T11:27:25.280Z,20.43
2019-05-13T11:29:56.324Z,31.48
2019-05-13T11:32:27.433Z,8.10
2019-05-13T11:35:01.802Z,20.50
2019-05-13T11:37:32.232Z,8.25
2019-05-13T11:40:03.338Z,10.10
2019-05-13T11:42:34.658Z,5.70
2019-05-13T11:45:08.351Z,7.70
2019-05-13T11:47:41.443Z,12.00
2019-05-13T11:50:12.405Z,7.27
2019-05-13T11:52:43.386Z,11.00
2019-05-13T11:55:16.343Z,8.53
2019-05-13T11:57:47.308Z,7.67
2019-05-13T12:00:22.854Z,7.20
2019-05-13T12:02:54.645Z,10.23
2019-05-13T12:05:25.954Z,5.13
2019-05-13T12:07:57.219Z,4.73
2019-05-13T12:10:28.243Z,13.30
2019-05-13T12:12:59.282Z,4.23
2019-05-13T12:15:45.694Z,7.20
2019-05-13T12:18:04.044Z,13.25
2019-05-13T12:20:35.193Z,8.03
2019-05-13T12:23:07.283Z,13.48
2019-05-13T12:25:38.266Z,19.45
2019-05-13T12:28:11.370Z,24.92
2019-05-13T12:30:41.978Z,3.33
2019-05-13T12:33:13.613Z,9.60
2019-05-13T12:35:44.938Z,11.97
2019-05-13T12:38:15.957Z,3.40
2019-05-13T12:40:46.977Z,8.55
2019-05-13T12:43:18.023Z,10.10
2019-05-13T12:45:49.152Z,13.88
2019-05-13T12:48:22.652Z,16.23
2019-05-13T12:50:53.929Z,10.28
2019-05-13T12:53:25.366Z,8.50
2019-05-13T12:55:57.316Z,5.20
2019-05-13T12:58:28.656Z,14.33
2019-05-13T13:01:01.463Z,11.10
2019-05-13T13:03:32.535Z,25.23
2019-05-13T13:06:24.984Z,23.00
2019-05-13T13:08:43.308Z,18.27
2019-05-13T13:11:09.299Z,7.23
2019-05-13T13:13:58.250Z,8.07
2019-05-13T13:16:13.277Z,12.80
2019-05-13T13:18:44.261Z,7.53
2019-05-13T13:21:15.438Z,6.30
2019-05-13T13:23:46.543Z,10.47
2019-05-13T13:26:17.525Z,3.27
2019-05-13T13:28:48.519Z,10.43
2019-05-13T13:31:19.497Z,6.77
2019-05-13T13:33:55.285Z,10.23
2019-05-13T13:36:24.256Z,4.73
2019-05-13T13:38:56.378Z,13.03
2019-05-13T13:41:27.977Z,5.43
2019-05-13T13:44:04.670Z,9.30
2019-05-13T13:46:41.269Z,10.20
2019-05-13T13:49:04.441Z,6.63
2019-05-13T13:51:35.518Z,16.30
2019-05-13T13:54:06.714Z,2.83
2019-05-13T13:56:37.746Z,6.40
2019-05-13T13:59:08.692Z,9.57
2019-05-13T14:01:39.708Z,14.80
2019-05-13T14:04:15.893Z,23.03
2019-05-13T14:09:16.035Z,9.20
2019-05-13T14:11:47.008Z,2.93
2019-05-13T14:14:18.130Z,23.00
2019-05-13T14:16:51.629Z,5.40
2019-05-13T14:19:22.015Z,5.57
2019-05-13T14:21:53.087Z,8.17
2019-05-13T14:24:24.116Z,5.33
2019-05-13T14:26:55.239Z,9.10
2019-05-13T14:29:38.436Z,3.23
2019-05-13T14:32:01.261Z,9.13
2019-05-13T14:34:32.032Z,6.30
2019-05-13T14:37:03.113Z,10.80
2019-05-13T14:39:36.239Z,7.63
2019-05-13T14:42:07.836Z,8.13
2019-05-13T14:44:38.884Z,5.22
2019-05-13T14:47:12.265Z,11.20
2019-05-13T14:49:42.614Z,7.67
2019-05-13T14:52:13.651Z,8.53
2019-05-13T14:54:44.612Z,41.13
2019-05-13T14:57:15.632Z,4.50
2019-05-13T14:59:46.591Z,4.77
2019-05-13T15:02:17.644Z,11.13
2019-05-13T15:04:48.735Z,11.23
2019-05-13T15:07:21.661Z,9.17
2019-05-13T15:09:52.459Z,6.80
2019-05-13T15:12:23.445Z,5.90
2019-05-13T15:14:54.547Z,3.53
2019-05-13T15:17:25.606Z,7.80
2019-05-13T15:19:56.592Z,11.77
2019-05-13T15:22:27.645Z,4.47
2019-05-13T15:24:58.687Z,5.40
2019-05-13T15:27:31.709Z,4.17
2019-05-13T15:30:16.680Z,6.13
2019-05-13T15:32:35.078Z,6.62
2019-05-13T15:35:09.983Z,17.50
2019-05-13T15:37:41.806Z,16.40
2019-05-13T15:40:12.775Z,2.17
2019-05-13T15:42:43.942Z,8.30
2019-05-13T15:45:14.943Z,6.87
2019-05-13T15:47:45.880Z,6.50
2019-05-13T15:50:16.870Z,5.60
2019-05-13T15:52:47.926Z,3.90
2019-05-13T15:55:21.179Z,18.30
2019-05-13T15:57:51.950Z,8.03
2019-05-13T16:00:23.175Z,7.70
2019-05-13T16:02:54.224Z,1.60
2019-05-13T16:05:25.216Z,5.23
2019-05-13T16:07:56.461Z,17.70
2019-05-13T16:10:27.426Z,2.73
2019-05-13T16:12:58.431Z,2.40
2019-05-13T16:15:29.382Z,6.90
2019-05-13T16:18:02.649Z,3.03
2019-05-13T16:20:34.876Z,1.70
2019-05-13T16:23:05.855Z,4.37
2019-05-13T16:25:36.805Z,2.30
2019-05-13T16:28:07.889Z,4.53
2019-05-13T16:30:38.841Z,2.87
2019-05-13T16:33:12.169Z,45.40
2019-05-13T16:35:42.648Z,4.50
2019-05-13T16:38:13.732Z,3.83
2019-05-13T16:40:44.671Z,4.60
2019-05-13T16:43:15.650Z,1.50
2019-05-13T16:45:46.589Z,3.90
2019-05-13T16:48:17.566Z,5.60
2019-05-13T16:50:48.508Z,3.83
2019-05-13T16:53:23.342Z,2.20
2019-05-13T16:55:52.127Z,2.03
2019-05-13T16:58:24.958Z,6.53
2019-05-13T17:00:56.044Z,1.83
2019-05-13T17:03:27.198Z,3.60
2019-05-13T17:05:58.531Z,3.47
2019-05-13T17:08:31.631Z,4.03
2019-05-13T17:11:02.444Z,4.07
2019-05-13T17:13:33.494Z,15.60
2019-05-13T17:16:04.511Z,3.03
2019-05-13T17:18:35.491Z,3.07
2019-05-13T17:21:06.442Z,4.30
2019-05-13T17:23:37.447Z,3.55
2019-05-13T17:26:08.452Z,2.20
2019-05-13T17:28:41.692Z,8.23
2019-05-13T17:31:12.120Z,12.88
2019-05-13T17:33:43.120Z,5.03
2019-05-13T17:36:14.059Z,8.68
2019-05-13T17:38:45.062Z,4.83
2019-05-13T17:41:16.017Z,9.80
2019-05-13T17:43:47.080Z,9.90
2019-05-13T17:46:18.049Z,9.68
2019-05-13T17:48:49.056Z,6.95
2019-05-13T17:51:22.329Z,9.83
2019-05-13T17:53:52.780Z,6.55
2019-05-13T17:56:23.951Z,3.33
2019-05-13T17:58:55.108Z,6.50
2019-05-13T18:01:26.188Z,25.82
2019-05-13T18:03:57.136Z,11.48
2019-05-13T18:06:28.116Z,1.77
2019-05-13T18:09:01.074Z,5.55
2019-05-13T18:11:32.938Z,11.00
2019-05-13T18:14:04.015Z,8.50
2019-05-13T18:16:35.207Z,6.33
2019-05-13T18:19:06.185Z,6.20
2019-05-13T18:21:37.189Z,4.65
2019-05-13T18:24:08.137Z,7.75
2019-05-13T18:26:41.585Z,10.75
2019-05-13T18:29:12.592Z,6.80
2019-05-13T18:31:46.396Z,12.40
2019-05-13T18:34:18.924Z,6.37
2019-05-13T18:36:51.665Z,9.83
2019-05-13T18:39:23.308Z,8.05
2019-05-13T18:41:54.420Z,4.62
2019-05-13T18:44:25.606Z,4.22
2019-05-13T18:46:57.687Z,11.85
2019-05-13T18:49:28.797Z,4.12
2019-05-13T18:51:59.864Z,4.47
2019-05-13T18:54:31.835Z,13.15
2019-05-13T18:57:02.984Z,14.70
2019-05-13T18:59:33.925Z,6.15
2019-05-13T19:02:05.897Z,5.37
2019-05-13T19:04:36.874Z,7.20
2019-05-13T19:07:08.017Z,8.53
2019-05-13T19:09:38.943Z,9.50
2019-05-13T19:12:11.635Z,10.35
2019-05-13T19:14:42.846Z,5.42
2019-05-13T19:17:13.815Z,7.55
2019-05-13T19:19:47.812Z,4.85
2019-05-13T19:22:21.188Z,8.73
2019-05-13T19:24:51.852Z,29.80
2019-05-13T19:27:23.009Z,3.70
2019-05-13T19:29:54.062Z,10.35
2019-05-13T19:32:26.150Z,6.28
2019-05-13T19:34:57.238Z,11.10
2019-05-13T19:37:28.352Z,7.53
2019-05-13T19:40:01.155Z,6.15
2019-05-13T19:42:34.038Z,11.22
2019-05-13T19:45:05.701Z,3.80
2019-05-13T19:47:36.862Z,9.65
2019-05-13T19:50:08.977Z,10.55
2019-05-13T19:52:41.480Z,7.67
2019-05-13T19:55:14.456Z,14.53
2019-05-13T19:57:45.451Z,4.58
2019-05-13T20:00:16.812Z,6.37
2019-05-13T20:02:47.747Z,10.40
2019-05-13T20:05:20.521Z,10.13
2019-05-13T20:07:52.338Z,12.23
2019-05-13T20:10:23.408Z,7.42
2019-05-13T20:12:54.343Z,15.20
2019-05-13T20:15:25.386Z,4.20
2019-05-13T20:17:56.319Z,8.40
2019-05-13T20:20:27.324Z,3.90
2019-05-13T20:22:58.537Z,5.03
2019-05-13T20:25:31.264Z,8.18
2019-05-13T20:28:02.485Z,4.75
2019-05-13T20:30:33.557Z,9.03
2019-05-13T20:33:04.490Z,6.97
2019-05-13T20:35:35.458Z,9.83
2019-05-13T20:38:06.421Z,7.85
2019-05-13T20:40:37.373Z,5.50
2019-05-13T20:43:08.423Z,10.18
2019-05-13T20:45:39.429Z,12.05
2019-05-13T20:48:12.268Z,14.83
2019-05-13T20:50:43.297Z,7.83
2019-05-13T20:53:14.359Z,15.35
2019-05-13T20:55:45.479Z,3.98
2019-05-13T20:58:16.470Z,7.35
2019-05-13T21:00:47.496Z,14.60
2019-05-13T21:03:18.565Z,17.30
2019-05-13T21:05:51.883Z,10.50
2019-05-13T21:08:23.332Z,10.75
2019-05-13T21:10:54.586Z,10.72
2019-05-13T21:13:25.568Z,34.08
2019-05-13T21:15:56.662Z,51.30
2019-05-13T21:18:27.734Z,8.83
2019-05-13T21:21:01.793Z,7.35
2019-05-13T21:23:32.812Z,14.25
2019-05-13T21:26:04.166Z,10.35
2019-05-13T21:28:35.097Z,8.03
2019-05-13T21:31:06.135Z,20.37
2019-05-13T21:33:37.106Z,5.67
2019-05-13T21:36:08.149Z,9.95
2019-05-13T21:38:39.169Z,15.08
2019-05-13T21:41:12.244Z,10.03
2019-05-13T21:43:43.124Z,13.93
2019-05-13T21:46:14.129Z,11.60
2019-05-13T21:48:45.118Z,4.40
2019-05-13T21:51:17.793Z,7.90
2019-05-13T21:53:48.874Z,15.40
2019-05-13T21:56:22.961Z,16.00
2019-05-13T21:58:52.902Z,7.25
2019-05-13T22:01:25.036Z,10.43
2019-05-13T22:03:56.129Z,9.18
2019-05-13T22:06:27.279Z,10.70
2019-05-13T22:08:58.365Z,8.35
2019-05-13T22:11:31.352Z,5.15
2019-05-13T22:14:03.491Z,9.58
2019-05-13T22:16:35.160Z,6.47
2019-05-13T22:19:06.404Z,7.62
2019-05-13T22:21:37.661Z,7.37
2019-05-13T22:24:08.679Z,12.85
2019-05-13T22:26:41.739Z,17.65
2019-05-13T22:29:12.399Z,5.17
2019-05-13T22:31:44.147Z,6.62
2019-05-13T22:34:15.126Z,18.10
2019-05-13T22:36:46.059Z,7.35
2019-05-13T22:39:17.032Z,6.55
2019-05-13T22:41:47.985Z,11.10
2019-05-13T22:44:18.955Z,13.62
2019-05-13T22:46:51.733Z,9.43
2019-05-13T22:49:22.828Z,5.50
2019-05-13T22:51:53.872Z,11.33
2019-05-13T22:54:24.834Z,4.20
2019-05-13T22:56:55.771Z,10.43
2019-05-13T22:59:26.747Z,7.40
2019-05-13T23:01:57.748Z,15.50
2019-05-13T23:04:31.639Z,14.93
2019-05-13T23:07:03.151Z,10.68
2019-05-13T23:09:34.853Z,12.47
2019-05-13T23:12:05.806Z,4.22
2019-05-13T23:14:36.863Z,5.95
2019-05-13T23:17:07.803Z,14.75
2019-05-13T23:19:38.892Z,4.50
2019-05-13T23:22:11.897Z,10.18
2019-05-13T23:24:42.748Z,6.15
2019-05-13T23:27:13.897Z,5.65
2019-05-13T23:29:45.915Z,5.45
2019-05-13T23:32:16.858Z,9.13
2019-05-13T23:34:47.816Z,10.45
2019-05-13T23:37:18.818Z,11.12
2019-05-13T23:39:51.847Z,49.58
2019-05-13T23:42:22.430Z,9.13
2019-05-13T23:44:53.407Z,9.70
2019-05-13T23:47:24.410Z,6.30
2019-05-13T23:49:55.379Z,20.37
2019-05-13T23:52:26.320Z,17.05
2019-05-13T23:54:57.299Z,8.60
2019-05-13T23:57:28.246Z,12.60
2019-05-13T23:59:59.235Z,10.00
